createdAt,value
2018-08-18T00:01:49.870Z,16.90
2018-08-18T00:04:33.138Z,17.16
2018-08-18T00:07:10.598Z,17.03
2018-08-18T00:09:46.321Z,16.90
2018-08-18T00:12:29.467Z,16.62
2018-08-18T00:15:08.738Z,16.57
2018-08-18T00:17:48.082Z,16.56
2018-08-18T00:20:33.034Z,16.62
2018-08-18T00:23:10.312Z,16.78
2018-08-18T00:25:51.945Z,16.79
2018-08-18T00:28:28.533Z,16.75
2018-08-18T00:31:05.756Z,16.61
2018-08-18T00:33:45.563Z,16.32
2018-08-18T00:36:29.149Z,16.17
2018-08-18T00:39:09.132Z,15.88
2018-08-18T00:41:48.522Z,15.95
2018-08-18T00:44:28.820Z,16.08
2018-08-18T00:47:07.834Z,16.02
2018-08-18T00:49:48.691Z,16.49
2018-08-18T00:52:31.422Z,16.16
2018-08-18T00:55:16.273Z,16.04
2018-08-18T00:57:56.336Z,16.01
2018-08-18T01:00:39.936Z,15.91
2018-08-18T01:03:20.824Z,16.40
2018-08-18T01:05:58.581Z,16.20
2018-08-18T01:08:42.447Z,16.19
2018-08-18T01:11:22.681Z,16.25
2018-08-18T01:14:02.571Z,15.97
2018-08-18T01:16:45.142Z,15.75
2018-08-18T01:19:23.560Z,15.96
2018-08-18T01:22:04.410Z,15.79
2018-08-18T01:24:44.033Z,15.83
2018-08-18T01:27:23.956Z,15.83
2018-08-18T01:30:02.213Z,15.65
2018-08-18T01:32:43.711Z,15.93
2018-08-18T01:35:25.333Z,15.39
2018-08-18T01:38:06.309Z,15.45
2018-08-18T01:40:45.330Z,15.20
2018-08-18T01:43:25.362Z,15.31
2018-08-18T01:46:06.618Z,15.48
2018-08-18T01:48:45.541Z,15.07
2018-08-18T01:51:30.503Z,15.37
2018-08-18T01:54:07.074Z,15.27
2018-08-18T01:56:42.423Z,15.09
2018-08-18T01:59:22.140Z,15.27
2018-08-18T02:01:55.907Z,15.18
2018-08-18T02:04:31.576Z,15.37
2018-08-18T02:07:20.204Z,15.46
2018-08-18T02:09:55.884Z,15.65
2018-08-18T02:12:32.192Z,14.98
2018-08-18T02:15:06.508Z,14.76
2018-08-18T02:17:42.900Z,14.69
2018-08-18T02:20:21.011Z,14.96
2018-08-18T02:22:57.082Z,14.46
2018-08-18T02:25:33.280Z,14.36
2018-08-18T02:28:12.328Z,15.17
2018-08-18T02:30:47.984Z,14.80
2018-08-18T02:33:24.264Z,14.74
2018-08-18T02:35:58.223Z,14.53
2018-08-18T02:38:33.488Z,14.75
2018-08-18T02:41:11.413Z,14.50
2018-08-18T02:43:45.294Z,14.80
2018-08-18T02:46:31.407Z,14.71
2018-08-18T02:49:06.069Z,15.11
2018-08-18T02:51:42.549Z,15.03
2018-08-18T02:54:17.794Z,14.90
2018-08-18T02:56:51.075Z,15.02
2018-08-18T02:59:26.601Z,14.99
2018-08-18T03:02:02.817Z,15.00
2018-08-18T03:04:41.062Z,15.03
2018-08-18T03:07:17.324Z,15.02
2018-08-18T03:09:52.899Z,14.88
2018-08-18T03:12:33.931Z,14.68
2018-08-18T03:15:13.335Z,14.63
2018-08-18T03:17:47.308Z,14.59
2018-08-18T03:20:21.131Z,14.54
2018-08-18T03:22:57.229Z,14.56
2018-08-18T03:25:41.676Z,14.54
2018-08-18T03:28:18.547Z,14.34
2018-08-18T03:31:02.153Z,14.32
2018-08-18T03:33:38.623Z,14.55
2018-08-18T03:36:26.193Z,14.52
2018-08-18T03:39:02.649Z,14.74
2018-08-18T03:41:38.781Z,14.62
2018-08-18T03:44:14.093Z,14.69
2018-08-18T03:46:52.228Z,14.67
2018-08-18T03:49:28.703Z,14.59
2018-08-18T03:52:04.974Z,14.66
2018-08-18T03:54:39.961Z,14.23
2018-08-18T03:57:17.142Z,14.33
2018-08-18T03:59:52.958Z,14.28
2018-08-18T04:02:31.644Z,14.19
2018-08-18T04:05:09.009Z,13.55
2018-08-18T04:07:50.622Z,14.08
2018-08-18T04:10:25.818Z,13.76
2018-08-18T04:13:02.252Z,13.59
2018-08-18T04:15:39.412Z,13.93
2018-08-18T04:18:18.720Z,13.90
2018-08-18T04:20:55.580Z,14.00
2018-08-18T04:23:34.629Z,13.86
2018-08-18T04:26:10.543Z,14.00
2018-08-18T04:28:47.207Z,13.69
2018-08-18T04:31:28.498Z,13.86
2018-08-18T04:34:12.662Z,14.25
2018-08-18T04:36:54.718Z,13.59
2018-08-18T04:39:30.084Z,13.59
2018-08-18T04:42:04.418Z,14.00
2018-08-18T04:44:39.619Z,14.31
2018-08-18T04:47:17.730Z,14.12
2018-08-18T04:49:52.978Z,13.90
2018-08-18T04:52:32.513Z,13.70
2018-08-18T04:55:10.617Z,13.92
2018-08-18T04:57:45.508Z,14.03
2018-08-18T05:00:20.524Z,14.18
2018-08-18T05:03:00.737Z,13.87
2018-08-18T05:05:36.250Z,13.15
2018-08-18T05:08:09.732Z,13.45
2018-08-18T05:10:46.961Z,13.78
2018-08-18T05:13:23.470Z,14.23
2018-08-18T05:15:58.847Z,14.04
2018-08-18T05:18:34.591Z,13.59
2018-08-18T05:21:11.119Z,13.70
2018-08-18T05:23:50.861Z,13.68
2018-08-18T05:26:28.713Z,13.96
2018-08-18T05:29:03.524Z,13.99
2018-08-18T05:31:37.060Z,13.94
2018-08-18T05:37:31.584Z,14.54
2018-08-18T05:40:06.441Z,14.42
2018-08-18T05:42:41.448Z,14.26
2018-08-18T05:45:24.336Z,14.28
2018-08-18T05:47:59.377Z,14.62
2018-08-18T05:50:35.608Z,14.74
2018-08-18T05:53:29.270Z,15.04
2018-08-18T05:56:05.682Z,15.12
2018-08-18T05:58:57.094Z,15.43
2018-08-18T06:01:39.457Z,15.31
2018-08-18T06:04:20.430Z,15.06
2018-08-18T06:06:55.241Z,15.41
2018-08-18T06:09:31.181Z,15.28
2018-08-18T06:12:10.736Z,15.27
2018-08-18T06:14:53.172Z,15.15
2018-08-18T06:17:34.615Z,15.34
2018-08-18T06:20:13.950Z,15.55
2018-08-18T06:22:49.399Z,15.51
2018-08-18T06:25:25.433Z,15.76
2018-08-18T06:28:04.774Z,15.76
2018-08-18T06:30:40.801Z,15.79
2018-08-18T06:33:15.444Z,15.78
2018-08-18T06:35:44.984Z,15.88
2018-08-18T06:38:15.322Z,15.82
2018-08-18T06:40:49.330Z,15.85
2018-08-18T06:43:18.738Z,16.10
2018-08-18T06:45:48.743Z,16.42
2018-08-18T06:48:22.102Z,16.40
2018-08-18T06:50:50.748Z,16.65
2018-08-18T06:53:19.512Z,16.42
2018-08-18T06:55:50.559Z,16.35
2018-08-18T06:58:20.278Z,16.55
2018-08-18T07:00:49.701Z,16.51
2018-08-18T07:03:30.343Z,16.66
2018-08-18T07:05:59.137Z,16.72
2018-08-18T07:08:27.840Z,17.03
2018-08-18T07:10:56.681Z,17.25
2018-08-18T07:13:25.873Z,16.98
2018-08-18T07:15:55.126Z,17.32
2018-08-18T07:18:24.484Z,17.04
2018-08-18T07:20:53.121Z,17.31
2018-08-18T07:23:21.626Z,17.35
2018-08-18T07:25:55.592Z,17.24
2018-08-18T07:28:24.188Z,17.44
2018-08-18T07:30:52.827Z,17.55
2018-08-18T07:33:21.387Z,17.75
2018-08-18T07:35:50.262Z,17.86
2018-08-18T07:38:23.660Z,17.95
2018-08-18T07:40:57.348Z,17.95
2018-08-18T07:43:28.140Z,18.15
2018-08-18T07:45:58.113Z,18.17
2018-08-18T07:48:26.667Z,18.14
2018-08-18T07:50:55.280Z,18.24
2018-08-18T07:53:23.843Z,18.42
2018-08-18T07:55:52.392Z,18.53
2018-08-18T07:58:22.317Z,18.70
2018-08-18T08:00:50.896Z,18.57
2018-08-18T08:03:20.072Z,18.66
2018-08-18T08:05:48.640Z,18.84
2018-08-18T08:08:17.189Z,18.90
2018-08-18T08:10:45.776Z,18.92
2018-08-18T08:13:15.133Z,19.06
2018-08-18T08:15:46.698Z,19.15
2018-08-18T08:18:16.082Z,19.41
2018-08-18T08:20:44.532Z,19.55
2018-08-18T08:23:19.692Z,19.63
2018-08-18T08:25:48.248Z,19.59
2018-08-18T08:28:16.805Z,19.71
2018-08-18T08:30:45.329Z,19.73
2018-08-18T08:33:15.640Z,19.80
2018-08-18T08:35:44.162Z,19.99
2018-08-18T08:38:12.749Z,20.20
2018-08-18T08:40:41.284Z,20.26
2018-08-18T08:43:14.337Z,20.41
2018-08-18T08:45:49.496Z,20.35
2018-08-18T08:48:18.076Z,20.73
2018-08-18T08:50:46.645Z,20.78
2018-08-18T08:53:20.798Z,20.57
2018-08-18T08:55:49.517Z,20.44
2018-08-18T08:58:18.060Z,20.38
2018-08-18T09:00:46.564Z,20.63
2018-08-18T09:03:15.116Z,20.95
2018-08-18T09:05:43.652Z,20.72
2018-08-18T09:08:12.201Z,20.73
2018-08-18T09:10:40.705Z,20.69
2018-08-18T09:13:09.284Z,20.60
2018-08-18T09:15:41.954Z,20.59
2018-08-18T09:18:11.960Z,20.78
2018-08-18T09:20:46.851Z,20.76
2018-08-18T09:23:15.641Z,20.75
2018-08-18T09:25:44.173Z,20.85
2018-08-18T09:28:14.766Z,20.91
2018-08-18T09:30:43.393Z,21.44
2018-08-18T09:33:11.992Z,21.38
2018-08-18T09:35:54.503Z,21.31
2018-08-18T09:38:25.836Z,21.34
2018-08-18T09:40:59.584Z,21.80
2018-08-18T09:43:28.856Z,21.74
2018-08-18T09:46:01.145Z,21.51
2018-08-18T09:48:30.119Z,21.80
2018-08-18T09:50:59.128Z,21.55
2018-08-18T09:53:27.784Z,21.48
2018-08-18T09:55:56.324Z,21.57
2018-08-18T09:58:26.014Z,22.30
2018-08-18T10:00:54.584Z,22.34
2018-08-18T10:03:23.172Z,22.27
2018-08-18T10:05:51.684Z,22.01
2018-08-18T10:08:20.617Z,22.12
2018-08-18T10:10:49.216Z,22.58
2018-08-18T10:13:23.436Z,22.77
2018-08-18T10:15:52.002Z,22.79
2018-08-18T10:18:27.285Z,22.88
2018-08-18T10:20:56.030Z,22.09
2018-08-18T10:23:24.571Z,21.95
2018-08-18T10:25:53.088Z,22.21
2018-08-18T10:28:21.640Z,22.36
2018-08-18T10:31:03.730Z,22.34
2018-08-18T10:33:33.121Z,22.53
2018-08-18T10:36:03.616Z,22.48
2018-08-18T10:38:40.119Z,22.73
2018-08-18T10:41:15.552Z,22.67
2018-08-18T10:43:48.842Z,22.55
2018-08-18T10:46:17.601Z,22.56
2018-08-18T10:48:47.876Z,22.47
2018-08-18T10:51:27.568Z,22.42
2018-08-18T10:53:59.138Z,22.43
2018-08-18T10:56:27.888Z,22.91
2018-08-18T10:59:13.080Z,22.91
2018-08-18T11:01:57.360Z,22.92
2018-08-18T11:04:25.896Z,23.17
2018-08-18T11:06:54.433Z,22.63
2018-08-18T11:09:22.978Z,22.58
2018-08-18T11:11:51.535Z,23.08
2018-08-18T11:14:20.307Z,23.05
2018-08-18T11:16:48.881Z,23.51
2018-08-18T11:19:17.388Z,23.22
2018-08-18T11:21:46.455Z,23.40
2018-08-18T11:24:18.635Z,23.29
2018-08-18T11:26:47.178Z,23.18
2018-08-18T11:29:17.949Z,23.09
2018-08-18T11:31:51.241Z,23.06
2018-08-18T11:34:19.803Z,22.99
2018-08-18T11:37:00.340Z,22.78
2018-08-18T11:39:30.416Z,23.70
2018-08-18T11:41:59.633Z,23.25
2018-08-18T11:44:28.173Z,23.33
2018-08-18T11:46:56.762Z,23.13
2018-08-18T11:49:25.295Z,23.18
2018-08-18T11:51:55.286Z,23.23
2018-08-18T11:54:23.997Z,23.69
2018-08-18T11:56:53.909Z,24.20
2018-08-18T11:59:23.106Z,24.14
2018-08-18T12:01:53.596Z,23.92
2018-08-18T12:04:22.789Z,23.73
2018-08-18T12:06:58.182Z,23.91
2018-08-18T12:09:27.529Z,24.06
2018-08-18T12:11:56.107Z,24.49
2018-08-18T12:14:24.649Z,24.50
2018-08-18T12:16:53.248Z,24.51
2018-08-18T12:19:21.805Z,24.65
2018-08-18T12:21:50.356Z,24.06
2018-08-18T12:24:21.176Z,24.32
2018-08-18T12:27:00.897Z,24.30
2018-08-18T12:29:30.315Z,24.95
2018-08-18T12:31:59.150Z,24.68
2018-08-18T12:34:27.649Z,24.58
2018-08-18T12:36:56.278Z,24.33
2018-08-18T12:39:24.709Z,24.39
2018-08-18T12:41:53.224Z,24.31
2018-08-18T12:44:25.909Z,24.80
2018-08-18T12:46:54.432Z,24.70
2018-08-18T12:49:22.970Z,24.81
2018-08-18T12:51:51.513Z,24.27
2018-08-18T12:54:20.056Z,24.29
2018-08-18T12:56:48.591Z,24.29
2018-08-18T12:59:17.121Z,24.30
2018-08-18T13:01:46.840Z,24.73
2018-08-18T13:04:16.813Z,24.44
2018-08-18T13:06:46.657Z,24.22
2018-08-18T13:09:16.496Z,25.35
2018-08-18T13:11:46.387Z,25.30
2018-08-18T13:14:18.504Z,25.26
2018-08-18T13:16:47.238Z,24.77
2018-08-18T13:19:17.654Z,24.58
2018-08-18T13:21:46.178Z,25.15
2018-08-18T13:24:14.818Z,24.95
2018-08-18T13:26:43.283Z,24.88
2018-08-18T13:29:11.849Z,25.63
2018-08-18T13:31:43.170Z,25.22
2018-08-18T13:34:13.388Z,25.40
2018-08-18T13:36:42.959Z,25.17
2018-08-18T13:39:14.445Z,24.83
2018-08-18T13:41:43.816Z,25.18
2018-08-18T13:44:12.543Z,25.68
2018-08-18T13:46:45.387Z,25.72
2018-08-18T13:49:13.941Z,26.28
2018-08-18T13:51:42.505Z,25.82
2018-08-18T13:54:11.075Z,26.14
2018-08-18T13:56:39.580Z,26.35
2018-08-18T13:59:09.136Z,26.08
2018-08-18T14:01:40.398Z,26.53
2018-08-18T14:04:17.986Z,25.23
2018-08-18T14:06:53.813Z,25.57
2018-08-18T14:09:22.418Z,25.68
2018-08-18T14:11:53.055Z,25.97
2018-08-18T14:14:21.588Z,25.91
2018-08-18T14:16:51.513Z,25.55
2018-08-18T14:19:22.081Z,25.82
2018-08-18T14:21:54.988Z,26.07
2018-08-18T14:24:28.745Z,26.09
2018-08-18T14:27:01.453Z,26.26
2018-08-18T14:29:31.639Z,25.84
2018-08-18T14:32:00.881Z,26.54
2018-08-18T14:34:29.637Z,25.79
2018-08-18T14:37:03.452Z,26.07
2018-08-18T14:39:39.236Z,26.26
2018-08-18T14:42:08.411Z,26.05
2018-08-18T14:44:37.580Z,26.12
2018-08-18T14:47:06.392Z,26.25
2018-08-18T14:49:34.898Z,26.45
2018-08-18T14:52:03.516Z,26.32
2018-08-18T14:54:32.723Z,26.56
2018-08-18T14:57:02.476Z,26.13
2018-08-18T14:59:35.372Z,26.00
2018-08-18T15:02:05.584Z,26.06
2018-08-18T15:04:34.849Z,26.40
2018-08-18T15:07:03.539Z,26.18
2018-08-18T15:09:36.368Z,26.64
2018-08-18T15:12:05.037Z,26.91
2018-08-18T15:14:33.600Z,27.19
2018-08-18T15:17:02.158Z,26.75
2018-08-18T15:19:30.686Z,27.05
2018-08-18T15:22:00.358Z,26.58
2018-08-18T15:24:28.876Z,26.33
2018-08-18T15:26:57.409Z,26.45
2018-08-18T15:29:25.951Z,26.61
2018-08-18T15:31:56.469Z,26.67
2018-08-18T15:34:25.212Z,26.33
2018-08-18T15:36:53.732Z,26.81
2018-08-18T15:39:24.976Z,26.47
2018-08-18T15:41:55.784Z,26.31
2018-08-18T15:44:24.321Z,26.63
2018-08-18T15:46:52.848Z,26.21
2018-08-18T15:49:21.400Z,26.26
2018-08-18T15:51:49.964Z,26.64
2018-08-18T15:54:18.507Z,26.89
2018-08-18T15:56:47.029Z,26.91
2018-08-18T15:59:15.629Z,27.05
2018-08-18T16:01:44.141Z,26.81
2018-08-18T16:04:12.706Z,26.88
2018-08-18T16:06:41.274Z,26.67
2018-08-18T16:09:10.292Z,26.58
2018-08-18T16:11:39.843Z,26.41
2018-08-18T16:14:08.396Z,26.65
2018-08-18T16:16:52.189Z,26.73
2018-08-18T16:19:20.719Z,27.06
2018-08-18T16:21:49.222Z,27.14
2018-08-18T16:24:43.400Z,27.16
2018-08-18T16:27:11.953Z,26.89
2018-08-18T16:29:40.873Z,26.75
2018-08-18T16:32:24.775Z,27.38
2018-08-18T16:34:59.308Z,27.35
2018-08-18T16:37:27.929Z,27.20
2018-08-18T16:39:57.172Z,27.31
2018-08-18T16:42:25.712Z,26.63
2018-08-18T16:44:54.255Z,27.03
2018-08-18T16:47:22.792Z,27.21
2018-08-18T16:49:51.293Z,27.09
2018-08-18T16:52:19.871Z,27.18
2018-08-18T16:54:48.393Z,26.69
2018-08-18T16:57:16.927Z,26.98
2018-08-18T16:59:45.428Z,26.84
2018-08-18T17:02:29.533Z,27.20
2018-08-18T17:04:58.285Z,27.16
2018-08-18T17:07:26.856Z,26.71
2018-08-18T17:09:55.880Z,26.79
2018-08-18T17:12:28.592Z,26.65
2018-08-18T17:14:57.104Z,26.66
2018-08-18T17:17:26.150Z,26.59
2018-08-18T17:19:54.682Z,26.47
2018-08-18T17:22:23.268Z,26.22
2018-08-18T17:24:51.784Z,26.01
2018-08-18T17:27:20.336Z,26.24
2018-08-18T17:29:50.556Z,26.18
2018-08-18T17:32:19.092Z,26.21
2018-08-18T17:34:47.630Z,25.92
2018-08-18T17:37:16.181Z,26.04
2018-08-18T17:39:44.692Z,25.82
2018-08-18T17:42:13.221Z,26.12
2018-08-18T17:44:41.801Z,25.95
2018-08-18T17:47:11.431Z,25.85
2018-08-18T17:49:57.867Z,26.03
2018-08-18T17:52:27.572Z,25.91
2018-08-18T17:55:13.301Z,25.73
2018-08-18T17:57:41.803Z,25.89
2018-08-18T18:00:20.200Z,25.71
2018-08-18T18:02:54.464Z,25.40
2018-08-18T18:05:24.625Z,25.31
2018-08-18T18:07:55.157Z,25.34
2018-08-18T18:10:25.745Z,25.04
2018-08-18T18:12:54.304Z,24.86
2018-08-18T18:15:30.562Z,24.62
2018-08-18T18:17:59.115Z,24.73
2018-08-18T18:20:29.026Z,24.39
2018-08-18T18:22:57.601Z,24.20
2018-08-18T18:25:26.157Z,23.96
2018-08-18T18:27:54.672Z,23.81
2018-08-18T18:30:25.884Z,23.87
2018-08-18T18:32:54.480Z,23.80
2018-08-18T18:35:24.208Z,23.73
2018-08-18T18:37:53.112Z,23.53
2018-08-18T18:40:28.480Z,23.40
2018-08-18T18:42:57.022Z,23.29
2018-08-18T18:45:32.846Z,23.32
2018-08-18T18:48:01.409Z,23.00
2018-08-18T18:50:29.968Z,22.76
2018-08-18T18:52:58.537Z,22.96
2018-08-18T18:55:27.154Z,22.73
2018-08-18T18:58:07.926Z,22.68
2018-08-18T19:00:37.588Z,22.53
2018-08-18T19:03:11.749Z,22.32
2018-08-18T19:05:40.778Z,22.35
2018-08-18T19:08:14.656Z,22.28
2018-08-18T19:10:52.284Z,22.31
2018-08-18T19:13:20.941Z,22.08
2018-08-18T19:15:49.495Z,21.86
2018-08-18T19:18:18.081Z,21.69
2018-08-18T19:20:46.706Z,21.69
2018-08-18T19:23:19.024Z,21.49
2018-08-18T19:25:49.736Z,21.43
2018-08-18T19:28:19.620Z,21.21
2018-08-18T19:30:49.480Z,21.30
2018-08-18T19:33:18.612Z,21.11
2018-08-18T19:35:49.178Z,21.01
2018-08-18T19:38:18.576Z,21.13
2018-08-18T19:40:48.446Z,20.90
2018-08-18T19:43:19.123Z,20.89
2018-08-18T19:45:47.884Z,20.58
2018-08-18T19:48:17.948Z,20.34
2018-08-18T19:50:53.513Z,19.98
2018-08-18T19:53:22.619Z,20.25
2018-08-18T19:55:51.520Z,20.16
2018-08-18T19:58:20.077Z,20.01
2018-08-18T20:00:48.584Z,19.66
2018-08-18T20:03:18.027Z,19.52
2018-08-18T20:05:46.546Z,19.59
2018-08-18T20:08:16.352Z,19.35
2018-08-18T20:10:50.156Z,19.49
2018-08-18T20:13:19.531Z,19.18
2018-08-18T20:15:50.446Z,19.29
2018-08-18T20:18:19.053Z,18.67
2018-08-18T20:20:47.806Z,18.61
2018-08-18T20:23:17.949Z,18.51
2018-08-18T20:25:47.232Z,18.75
2018-08-18T20:28:15.784Z,18.83
2018-08-18T20:30:44.280Z,18.89
2018-08-18T20:33:12.880Z,18.29
2018-08-18T20:35:42.445Z,18.43
2018-08-18T20:38:10.987Z,18.55
2018-08-18T20:40:39.513Z,18.35
2018-08-18T20:43:10.174Z,18.46
2018-08-18T20:45:53.261Z,18.32
2018-08-18T20:48:23.072Z,18.13
2018-08-18T20:50:53.170Z,17.38
2018-08-18T20:53:21.706Z,17.84
2018-08-18T20:56:02.243Z,17.84
2018-08-18T20:58:33.814Z,17.73
2018-08-18T21:01:03.911Z,17.51
2018-08-18T21:03:45.269Z,17.52
2018-08-18T21:06:14.460Z,17.74
2018-08-18T21:08:43.311Z,17.67
2018-08-18T21:11:12.562Z,17.29
2018-08-18T21:13:47.092Z,17.31
2018-08-18T21:16:16.036Z,17.46
2018-08-18T21:18:44.586Z,17.74
2018-08-18T21:21:27.228Z,17.86
2018-08-18T21:23:59.020Z,17.38
2018-08-18T21:26:29.270Z,17.42
2018-08-18T21:28:59.007Z,17.63
2018-08-18T21:31:36.727Z,17.67
2018-08-18T21:34:07.323Z,17.62
2018-08-18T21:36:38.289Z,17.48
2018-08-18T21:39:11.225Z,17.07
2018-08-18T21:41:42.448Z,16.95
2018-08-18T21:44:15.708Z,16.95
2018-08-18T21:46:44.349Z,16.74
2018-08-18T21:49:14.983Z,16.40
2018-08-18T21:51:45.353Z,16.59
2018-08-18T21:54:16.384Z,16.90
2018-08-18T21:56:48.857Z,16.79
2018-08-18T21:59:20.245Z,16.63
2018-08-18T22:01:49.160Z,16.69
2018-08-18T22:04:20.431Z,16.76
2018-08-18T22:06:49.786Z,16.59
2018-08-18T22:09:28.855Z,16.71
2018-08-18T22:11:58.212Z,16.81
2018-08-18T22:14:30.057Z,16.75
2018-08-18T22:16:59.679Z,16.75
2018-08-18T22:19:33.610Z,16.74
2018-08-18T22:22:03.637Z,16.56
2018-08-18T22:24:34.554Z,16.37
2018-08-18T22:27:14.621Z,16.37
2018-08-18T22:29:48.872Z,15.90
2018-08-18T22:32:26.521Z,16.13
2018-08-18T22:34:55.993Z,16.32
2018-08-18T22:37:27.036Z,16.37
2018-08-18T22:40:00.444Z,15.92
2018-08-18T22:42:30.396Z,15.96
2018-08-18T22:45:07.721Z,15.95
2018-08-18T22:47:39.072Z,15.95
2018-08-18T22:50:09.415Z,15.88
2018-08-18T22:52:40.695Z,15.96
2018-08-18T22:55:10.008Z,16.06
2018-08-18T22:57:38.580Z,15.86
2018-08-18T23:00:07.178Z,15.73
2018-08-18T23:02:35.732Z,15.78
2018-08-18T23:05:04.329Z,15.74
2018-08-18T23:07:32.878Z,15.97
2018-08-18T23:10:01.381Z,15.74
2018-08-18T23:12:29.929Z,15.55
2018-08-18T23:14:58.448Z,15.31
2018-08-18T23:17:26.987Z,15.29
2018-08-18T23:19:55.520Z,15.42
2018-08-18T23:22:38.665Z,15.65
2018-08-18T23:25:07.243Z,15.36
2018-08-18T23:27:35.800Z,15.39
2018-08-18T23:30:05.832Z,15.40
2018-08-18T23:32:34.413Z,15.56
2018-08-18T23:35:02.932Z,15.22
2018-08-18T23:37:31.484Z,15.29
2018-08-18T23:39:59.996Z,15.20
2018-08-18T23:42:28.505Z,14.83
2018-08-18T23:44:57.054Z,15.15
2018-08-18T23:47:25.569Z,15.31
2018-08-18T23:49:54.121Z,15.04
2018-08-18T23:52:22.670Z,14.94
2018-08-18T23:54:51.233Z,15.27
2018-08-18T23:57:19.765Z,15.03
2018-08-18T23:59:48.784Z,14.74
